sensor_id;sensor_type;location;lat;lon;timestamp;pressure;altitude;pressure_sealevel;temperature;humidity
76337;BME280;65157;50.082;18.178;2023-01-16T00:01:13;98374.98;;;3.38;81.45
76337;BME280;65157;50.082;18.178;2023-01-16T00:03:40;98377.14;;;3.35;81.95
76337;BME280;65157;50.082;18.178;2023-01-16T00:06:07;98376.48;;;3.34;81.68
76337;BME280;65157;50.082;18.178;2023-01-16T00:08:33;98378.41;;;3.34;81.80
76337;BME280;65157;50.082;18.178;2023-01-16T00:11:00;98374.45;;;3.32;81.64
76337;BME280;65157;50.082;18.178;2023-01-16T00:13:27;98374.23;;;3.33;81.81
76337;BME280;65157;50.082;18.178;2023-01-16T00:15:53;98368.52;;;3.32;81.67
76337;BME280;65157;50.082;18.178;2023-01-16T00:18:20;98370.09;;;3.32;81.59
76337;BME280;65157;50.082;18.178;2023-01-16T00:20:47;98364.52;;;3.31;81.53
76337;BME280;65157;50.082;18.178;2023-01-16T00:23:15;98361.76;;;3.30;81.54
76337;BME280;65157;50.082;18.178;2023-01-16T00:25:42;98358.48;;;3.29;81.63
76337;BME280;65157;50.082;18.178;2023-01-16T00:28:11;98355.47;;;3.25;81.45
76337;BME280;65157;50.082;18.178;2023-01-16T00:30:38;98350.85;;;3.21;81.30
76337;BME280;65157;50.082;18.178;2023-01-16T00:33:05;98352.08;;;3.15;81.29
76337;BME280;65157;50.082;18.178;2023-01-16T00:35:33;98354.39;;;3.13;81.36
76337;BME280;65157;50.082;18.178;2023-01-16T00:38:00;98356.27;;;3.08;81.18
76337;BME280;65157;50.082;18.178;2023-01-16T00:40:27;98355.48;;;3.05;81.24
76337;BME280;65157;50.082;18.178;2023-01-16T00:42:54;98358.70;;;3.02;81.23
76337;BME280;65157;50.082;18.178;2023-01-16T00:45:21;98361.53;;;3.00;81.16
76337;BME280;65157;50.082;18.178;2023-01-16T00:47:48;98368.20;;;2.99;81.08
76337;BME280;65157;50.082;18.178;2023-01-16T00:50:15;98366.86;;;2.96;80.93
76337;BME280;65157;50.082;18.178;2023-01-16T00:52:42;98366.09;;;2.93;80.91
76337;BME280;65157;50.082;18.178;2023-01-16T00:55:09;98364.58;;;2.90;80.88
76337;BME280;65157;50.082;18.178;2023-01-16T00:57:35;98359.23;;;2.88;80.68
76337;BME280;65157;50.082;18.178;2023-01-16T01:00:02;98362.45;;;2.85;80.77
76337;BME280;65157;50.082;18.178;2023-01-16T01:02:30;98355.88;;;2.83;80.65
76337;BME280;65157;50.082;18.178;2023-01-16T01:04:56;98355.10;;;2.79;80.71
76337;BME280;65157;50.082;18.178;2023-01-16T01:07:23;98360.38;;;2.77;80.77
76337;BME280;65157;50.082;18.178;2023-01-16T01:09:49;98358.70;;;2.74;80.88
76337;BME280;65157;50.082;18.178;2023-01-16T01:12:16;98355.64;;;2.72;80.88
76337;BME280;65157;50.082;18.178;2023-01-16T01:14:43;98358.13;;;2.70;80.81
76337;BME280;65157;50.082;18.178;2023-01-16T01:17:09;98358.20;;;2.67;80.93
76337;BME280;65157;50.082;18.178;2023-01-16T01:19:36;98356.40;;;2.63;80.88
76337;BME280;65157;50.082;18.178;2023-01-16T01:22:03;98358.10;;;2.64;80.78
76337;BME280;65157;50.082;18.178;2023-01-16T01:24:30;98352.11;;;2.60;80.77
76337;BME280;65157;50.082;18.178;2023-01-16T01:26:56;98365.85;;;2.60;80.69
76337;BME280;65157;50.082;18.178;2023-01-16T01:29:23;98367.98;;;2.59;80.82
76337;BME280;65157;50.082;18.178;2023-01-16T01:31:50;98367.34;;;2.57;80.84
76337;BME280;65157;50.082;18.178;2023-01-16T01:34:16;98368.16;;;2.51;81.23
76337;BME280;65157;50.082;18.178;2023-01-16T01:36:43;98367.11;;;2.44;81.67
76337;BME280;65157;50.082;18.178;2023-01-16T01:39:09;98362.02;;;2.39;81.84
76337;BME280;65157;50.082;18.178;2023-01-16T01:41:36;98356.88;;;2.35;81.87
76337;BME280;65157;50.082;18.178;2023-01-16T01:47:08;98361.84;;;2.32;82.04
76337;BME280;65157;50.082;18.178;2023-01-16T01:49:36;98364.98;;;2.32;82.00
76337;BME280;65157;50.082;18.178;2023-01-16T01:52:03;98362.23;;;2.30;82.06
76337;BME280;65157;50.082;18.178;2023-01-16T01:54:38;98360.16;;;2.29;82.08
76337;BME280;65157;50.082;18.178;2023-01-16T01:57:16;98353.07;;;2.27;82.16
76337;BME280;65157;50.082;18.178;2023-01-16T01:59:51;98348.05;;;2.26;82.36
76337;BME280;65157;50.082;18.178;2023-01-16T02:02:21;98341.16;;;2.23;82.23
76337;BME280;65157;50.082;18.178;2023-01-16T02:04:53;98337.36;;;2.22;82.13
76337;BME280;65157;50.082;18.178;2023-01-16T02:07:24;98342.09;;;2.20;82.42
76337;BME280;65157;50.082;18.178;2023-01-16T02:09:59;98342.33;;;2.18;82.08
76337;BME280;65157;50.082;18.178;2023-01-16T02:12:28;98349.67;;;2.17;82.34
76337;BME280;65157;50.082;18.178;2023-01-16T02:14:55;98351.24;;;2.16;82.09
76337;BME280;65157;50.082;18.178;2023-01-16T02:17:23;98344.29;;;2.15;82.19
76337;BME280;65157;50.082;18.178;2023-01-16T02:22:45;98332.58;;;2.10;82.21
76337;BME280;65157;50.082;18.178;2023-01-16T02:33:48;98342.41;;;1.99;82.06
76337;BME280;65157;50.082;18.178;2023-01-16T02:47:25;98308.04;;;1.95;81.74
76337;BME280;65157;50.082;18.178;2023-01-16T02:50:06;98301.10;;;1.94;81.94
76337;BME280;65157;50.082;18.178;2023-01-16T02:52:43;98303.79;;;1.91;81.92
76337;BME280;65157;50.082;18.178;2023-01-16T02:55:17;98300.77;;;1.87;82.29
76337;BME280;65157;50.082;18.178;2023-01-16T02:57:53;98292.86;;;1.82;82.03
76337;BME280;65157;50.082;18.178;2023-01-16T03:00:22;98292.89;;;1.81;82.09
76337;BME280;65157;50.082;18.178;2023-01-16T03:02:49;98293.04;;;1.82;82.20
76337;BME280;65157;50.082;18.178;2023-01-16T03:05:16;98292.30;;;1.83;82.34
76337;BME280;65157;50.082;18.178;2023-01-16T03:08:12;98297.51;;;1.85;82.30
76337;BME280;65157;50.082;18.178;2023-01-16T03:10:52;98299.54;;;1.87;82.10
76337;BME280;65157;50.082;18.178;2023-01-16T03:13:27;98291.01;;;1.88;82.24
76337;BME280;65157;50.082;18.178;2023-01-16T03:18:54;98286.66;;;1.86;82.10
76337;BME280;65157;50.082;18.178;2023-01-16T03:21:32;98293.33;;;1.85;82.03
76337;BME280;65157;50.082;18.178;2023-01-16T03:24:20;98294.20;;;1.84;82.03
76337;BME280;65157;50.082;18.178;2023-01-16T03:26:58;98299.09;;;1.84;82.27
76337;BME280;65157;50.082;18.178;2023-01-16T03:29:43;98293.34;;;1.84;82.16
76337;BME280;65157;50.082;18.178;2023-01-16T03:35:12;98297.89;;;1.83;82.37
76337;BME280;65157;50.082;18.178;2023-01-16T03:37:46;98289.00;;;1.84;82.03
76337;BME280;65157;50.082;18.178;2023-01-16T03:40:18;98286.90;;;1.84;82.17
76337;BME280;65157;50.082;18.178;2023-01-16T03:42:50;98283.57;;;1.86;82.22
76337;BME280;65157;50.082;18.178;2023-01-16T03:45:26;98283.77;;;1.85;82.07
76337;BME280;65157;50.082;18.178;2023-01-16T03:48:07;98277.33;;;1.85;82.11
76337;BME280;65157;50.082;18.178;2023-01-16T03:50:36;98271.93;;;1.85;82.21
76337;BME280;65157;50.082;18.178;2023-01-16T03:53:07;98270.20;;;1.84;82.03
76337;BME280;65157;50.082;18.178;2023-01-16T03:55:45;98258.54;;;1.85;82.13
76337;BME280;65157;50.082;18.178;2023-01-16T03:58:37;98252.92;;;1.86;81.88
76337;BME280;65157;50.082;18.178;2023-01-16T04:01:14;98250.66;;;1.86;82.11
76337;BME280;65157;50.082;18.178;2023-01-16T04:07:03;98243.85;;;1.88;81.96
76337;BME280;65157;50.082;18.178;2023-01-16T04:09:40;98240.16;;;1.89;81.96
76337;BME280;65157;50.082;18.178;2023-01-16T04:12:09;98232.82;;;1.91;81.83
76337;BME280;65157;50.082;18.178;2023-01-16T04:14:39;98222.70;;;1.92;81.82
76337;BME280;65157;50.082;18.178;2023-01-16T04:17:07;98214.90;;;1.90;81.69
76337;BME280;65157;50.082;18.178;2023-01-16T04:19:34;98217.45;;;1.92;81.97
76337;BME280;65157;50.082;18.178;2023-01-16T04:22:06;98215.05;;;1.92;81.86
76337;BME280;65157;50.082;18.178;2023-01-16T04:24:34;98212.27;;;1.91;81.96
76337;BME280;65157;50.082;18.178;2023-01-16T04:27:01;98210.23;;;1.89;82.04
76337;BME280;65157;50.082;18.178;2023-01-16T04:29:28;98212.88;;;1.88;81.69
76337;BME280;65157;50.082;18.178;2023-01-16T04:31:54;98209.05;;;1.88;81.87
76337;BME280;65157;50.082;18.178;2023-01-16T04:34:21;98200.77;;;1.86;81.89
76337;BME280;65157;50.082;18.178;2023-01-16T04:36:47;98201.08;;;1.86;81.79
76337;BME280;65157;50.082;18.178;2023-01-16T04:39:14;98202.80;;;1.87;81.87
76337;BME280;65157;50.082;18.178;2023-01-16T04:41:40;98196.90;;;1.87;81.74
76337;BME280;65157;50.082;18.178;2023-01-16T04:44:09;98199.75;;;1.84;81.70
76337;BME280;65157;50.082;18.178;2023-01-16T04:46:36;98191.27;;;1.82;81.47
76337;BME280;65157;50.082;18.178;2023-01-16T04:49:05;98190.58;;;1.83;81.40
76337;BME280;65157;50.082;18.178;2023-01-16T04:51:32;98186.41;;;1.82;81.33
76337;BME280;65157;50.082;18.178;2023-01-16T04:53:59;98191.39;;;1.85;81.48
76337;BME280;65157;50.082;18.178;2023-01-16T04:56:25;98196.20;;;1.86;81.25
76337;BME280;65157;50.082;18.178;2023-01-16T04:58:52;98190.30;;;1.86;81.12
76337;BME280;65157;50.082;18.178;2023-01-16T05:01:19;98180.76;;;1.85;81.18
76337;BME280;65157;50.082;18.178;2023-01-16T05:03:47;98177.68;;;1.83;81.37
76337;BME280;65157;50.082;18.178;2023-01-16T05:06:13;98180.40;;;1.78;81.44
76337;BME280;65157;50.082;18.178;2023-01-16T05:08:40;98182.89;;;1.77;81.46
76337;BME280;65157;50.082;18.178;2023-01-16T05:11:07;98180.80;;;1.77;81.38
76337;BME280;65157;50.082;18.178;2023-01-16T05:13:34;98176.10;;;1.76;81.43
76337;BME280;65157;50.082;18.178;2023-01-16T05:16:00;98167.10;;;1.74;81.50
76337;BME280;65157;50.082;18.178;2023-01-16T05:18:27;98162.05;;;1.75;81.54
76337;BME280;65157;50.082;18.178;2023-01-16T05:20:54;98165.38;;;1.74;81.64
76337;BME280;65157;50.082;18.178;2023-01-16T05:23:20;98167.02;;;1.70;81.93
76337;BME280;65157;50.082;18.178;2023-01-16T05:25:47;98163.09;;;1.68;82.04
76337;BME280;65157;50.082;18.178;2023-01-16T05:28:14;98158.80;;;1.65;82.06
76337;BME280;65157;50.082;18.178;2023-01-16T05:30:41;98156.61;;;1.62;82.28
76337;BME280;65157;50.082;18.178;2023-01-16T05:33:07;98155.08;;;1.61;82.17
76337;BME280;65157;50.082;18.178;2023-01-16T05:35:34;98158.73;;;1.61;82.33
76337;BME280;65157;50.082;18.178;2023-01-16T05:38:01;98154.55;;;1.61;82.36
76337;BME280;65157;50.082;18.178;2023-01-16T05:40:27;98148.92;;;1.64;82.31
76337;BME280;65157;50.082;18.178;2023-01-16T05:42:54;98145.93;;;1.65;82.19
76337;BME280;65157;50.082;18.178;2023-01-16T05:45:21;98137.90;;;1.66;82.07
76337;BME280;65157;50.082;18.178;2023-01-16T05:47:47;98130.24;;;1.66;81.99
76337;BME280;65157;50.082;18.178;2023-01-16T05:50:14;98121.20;;;1.66;82.06
76337;BME280;65157;50.082;18.178;2023-01-16T05:52:41;98125.92;;;1.72;81.96
76337;BME280;65157;50.082;18.178;2023-01-16T05:55:08;98131.67;;;1.73;82.02
76337;BME280;65157;50.082;18.178;2023-01-16T05:57:34;98130.45;;;1.72;81.96
76337;BME280;65157;50.082;18.178;2023-01-16T06:00:03;98131.45;;;1.75;81.84
76337;BME280;65157;50.082;18.178;2023-01-16T06:02:30;98127.42;;;1.76;82.19
76337;BME280;65157;50.082;18.178;2023-01-16T06:04:56;98123.46;;;1.74;81.98
76337;BME280;65157;50.082;18.178;2023-01-16T06:07:23;98121.95;;;1.71;82.15
76337;BME280;65157;50.082;18.178;2023-01-16T06:09:50;98126.98;;;1.72;81.92
76337;BME280;65157;50.082;18.178;2023-01-16T06:12:18;98122.43;;;1.73;81.99
76337;BME280;65157;50.082;18.178;2023-01-16T06:14:45;98110.09;;;1.73;81.65
76337;BME280;65157;50.082;18.178;2023-01-16T06:17:13;98100.39;;;1.71;81.93
76337;BME280;65157;50.082;18.178;2023-01-16T06:19:43;98090.86;;;1.70;81.78
76337;BME280;65157;50.082;18.178;2023-01-16T06:22:12;98093.55;;;1.74;81.75
76337;BME280;65157;50.082;18.178;2023-01-16T06:24:39;98089.13;;;1.76;81.85
76337;BME280;65157;50.082;18.178;2023-01-16T06:27:06;98087.13;;;1.80;81.75
76337;BME280;65157;50.082;18.178;2023-01-16T06:29:33;98080.77;;;1.83;81.69
76337;BME280;65157;50.082;18.178;2023-01-16T06:32:00;98082.96;;;1.86;81.59
76337;BME280;65157;50.082;18.178;2023-01-16T06:34:27;98080.09;;;1.89;81.66
76337;BME280;65157;50.082;18.178;2023-01-16T06:36:53;98082.86;;;1.90;81.74
76337;BME280;65157;50.082;18.178;2023-01-16T06:39:20;98090.83;;;1.91;81.81
76337;BME280;65157;50.082;18.178;2023-01-16T06:41:46;98089.61;;;1.91;81.72
76337;BME280;65157;50.082;18.178;2023-01-16T06:44:13;98086.62;;;1.92;81.73
76337;BME280;65157;50.082;18.178;2023-01-16T06:46:40;98084.52;;;1.92;81.62
76337;BME280;65157;50.082;18.178;2023-01-16T06:49:06;98079.29;;;1.94;81.76
76337;BME280;65157;50.082;18.178;2023-01-16T06:51:33;98074.21;;;1.94;81.55
76337;BME280;65157;50.082;18.178;2023-01-16T06:54:00;98073.04;;;1.93;81.60
76337;BME280;65157;50.082;18.178;2023-01-16T06:56:29;98076.44;;;1.96;81.67
76337;BME280;65157;50.082;18.178;2023-01-16T06:58:56;98079.91;;;1.96;81.45
76337;BME280;65157;50.082;18.178;2023-01-16T07:01:23;98081.30;;;1.96;81.69
76337;BME280;65157;50.082;18.178;2023-01-16T07:03:49;98079.05;;;1.96;81.75
76337;BME280;65157;50.082;18.178;2023-01-16T07:06:16;98076.95;;;1.96;81.77
76337;BME280;65157;50.082;18.178;2023-01-16T07:08:42;98071.73;;;1.96;81.78
76337;BME280;65157;50.082;18.178;2023-01-16T07:11:09;98067.90;;;1.96;81.55
76337;BME280;65157;50.082;18.178;2023-01-16T07:13:36;98064.41;;;1.97;81.73
76337;BME280;65157;50.082;18.178;2023-01-16T07:16:03;98065.73;;;1.99;81.43
76337;BME280;65157;50.082;18.178;2023-01-16T07:18:48;98061.67;;;2.01;81.47
76337;BME280;65157;50.082;18.178;2023-01-16T07:21:25;98057.30;;;2.02;81.29
76337;BME280;65157;50.082;18.178;2023-01-16T07:24:14;98058.80;;;2.04;81.30
76337;BME280;65157;50.082;18.178;2023-01-16T07:26:43;98053.57;;;2.05;81.19
76337;BME280;65157;50.082;18.178;2023-01-16T07:29:11;98052.66;;;2.06;81.16
76337;BME280;65157;50.082;18.178;2023-01-16T07:31:39;98050.75;;;2.06;81.14
76337;BME280;65157;50.082;18.178;2023-01-16T07:34:06;98042.20;;;2.06;81.28
76337;BME280;65157;50.082;18.178;2023-01-16T07:36:33;98036.10;;;2.07;81.21
76337;BME280;65157;50.082;18.178;2023-01-16T07:39:00;98027.91;;;2.08;81.23
76337;BME280;65157;50.082;18.178;2023-01-16T07:41:27;98023.53;;;2.09;81.03
76337;BME280;65157;50.082;18.178;2023-01-16T07:43:53;98019.96;;;2.11;81.00
76337;BME280;65157;50.082;18.178;2023-01-16T07:46:20;98011.70;;;2.14;80.95
76337;BME280;65157;50.082;18.178;2023-01-16T07:48:46;98004.86;;;2.17;80.96
76337;BME280;65157;50.082;18.178;2023-01-16T07:51:13;98004.45;;;2.18;80.94
76337;BME280;65157;50.082;18.178;2023-01-16T07:53:40;98004.95;;;2.19;81.10
76337;BME280;65157;50.082;18.178;2023-01-16T07:56:06;98002.13;;;2.20;80.99
76337;BME280;65157;50.082;18.178;2023-01-16T07:58:33;97999.40;;;2.24;80.76
76337;BME280;65157;50.082;18.178;2023-01-16T08:01:00;97997.06;;;2.27;80.95
76337;BME280;65157;50.082;18.178;2023-01-16T08:03:26;97993.02;;;2.28;80.79
76337;BME280;65157;50.082;18.178;2023-01-16T08:05:57;97989.27;;;2.32;80.61
76337;BME280;65157;50.082;18.178;2023-01-16T08:08:24;97985.70;;;2.35;80.53
76337;BME280;65157;50.082;18.178;2023-01-16T08:10:55;97985.39;;;2.39;80.51
76337;BME280;65157;50.082;18.178;2023-01-16T08:13:22;97983.20;;;2.43;80.66
76337;BME280;65157;50.082;18.178;2023-01-16T08:15:49;97985.02;;;2.46;80.71
76337;BME280;65157;50.082;18.178;2023-01-16T08:18:17;97979.86;;;2.49;80.45
76337;BME280;65157;50.082;18.178;2023-01-16T08:20:45;97971.92;;;2.52;80.63
76337;BME280;65157;50.082;18.178;2023-01-16T08:23:12;97963.48;;;2.55;80.52
76337;BME280;65157;50.082;18.178;2023-01-16T08:25:39;97962.01;;;2.58;80.19
76337;BME280;65157;50.082;18.178;2023-01-16T08:28:05;97958.56;;;2.62;80.36
76337;BME280;65157;50.082;18.178;2023-01-16T08:30:32;97956.33;;;2.66;80.39
76337;BME280;65157;50.082;18.178;2023-01-16T08:32:59;97955.16;;;2.70;80.15
76337;BME280;65157;50.082;18.178;2023-01-16T08:35:27;97953.97;;;2.75;80.18
76337;BME280;65157;50.082;18.178;2023-01-16T08:37:54;97948.94;;;2.80;80.27
76337;BME280;65157;50.082;18.178;2023-01-16T08:40:21;97948.45;;;2.84;80.21
76337;BME280;65157;50.082;18.178;2023-01-16T08:42:47;97945.55;;;2.88;80.18
76337;BME280;65157;50.082;18.178;2023-01-16T08:45:33;97939.14;;;2.92;80.01
76337;BME280;65157;50.082;18.178;2023-01-16T08:48:23;97932.37;;;2.97;80.00
76337;BME280;65157;50.082;18.178;2023-01-16T08:51:17;97930.45;;;3.02;79.92
76337;BME280;65157;50.082;18.178;2023-01-16T08:53:55;97927.45;;;3.08;79.83
76337;BME280;65157;50.082;18.178;2023-01-16T08:56:23;97926.38;;;3.14;79.91
76337;BME280;65157;50.082;18.178;2023-01-16T08:58:49;97922.70;;;3.19;79.68
76337;BME280;65157;50.082;18.178;2023-01-16T09:01:16;97919.87;;;3.25;79.48
76337;BME280;65157;50.082;18.178;2023-01-16T09:03:44;97917.25;;;3.30;79.63
76337;BME280;65157;50.082;18.178;2023-01-16T09:06:10;97915.89;;;3.35;79.40
76337;BME280;65157;50.082;18.178;2023-01-16T09:08:37;97908.55;;;3.40;79.43
76337;BME280;65157;50.082;18.178;2023-01-16T09:11:03;97902.11;;;3.45;79.47
76337;BME280;65157;50.082;18.178;2023-01-16T09:13:49;97901.89;;;3.51;79.30
76337;BME280;65157;50.082;18.178;2023-01-16T09:16:21;97894.23;;;3.55;79.46
76337;BME280;65157;50.082;18.178;2023-01-16T09:18:49;97890.70;;;3.61;79.27
76337;BME280;65157;50.082;18.178;2023-01-16T09:21:16;97886.51;;;3.66;78.69
76337;BME280;65157;50.082;18.178;2023-01-16T09:23:45;97873.08;;;3.71;78.70
76337;BME280;65157;50.082;18.178;2023-01-16T09:26:12;97866.09;;;3.75;78.60
76337;BME280;65157;50.082;18.178;2023-01-16T09:28:39;97864.81;;;3.82;78.61
76337;BME280;65157;50.082;18.178;2023-01-16T09:31:05;97851.58;;;3.85;78.24
76337;BME280;65157;50.082;18.178;2023-01-16T09:33:32;97847.18;;;3.91;78.07
76337;BME280;65157;50.082;18.178;2023-01-16T09:35:59;97840.89;;;3.95;78.26
76337;BME280;65157;50.082;18.178;2023-01-16T09:38:26;97833.31;;;4.02;77.54
76337;BME280;65157;50.082;18.178;2023-01-16T09:40:56;97827.52;;;4.07;77.28
76337;BME280;65157;50.082;18.178;2023-01-16T09:43:41;97825.09;;;4.12;76.83
76337;BME280;65157;50.082;18.178;2023-01-16T09:49:00;97812.42;;;4.18;76.84
76337;BME280;65157;50.082;18.178;2023-01-16T09:51:42;97804.89;;;4.23;76.61
76337;BME280;65157;50.082;18.178;2023-01-16T09:54:32;97793.40;;;4.26;76.55
76337;BME280;65157;50.082;18.178;2023-01-16T09:57:22;97788.02;;;4.30;76.33
76337;BME280;65157;50.082;18.178;2023-01-16T10:00:11;97779.56;;;4.32;75.81
76337;BME280;65157;50.082;18.178;2023-01-16T10:02:40;97776.78;;;4.36;75.94
76337;BME280;65157;50.082;18.178;2023-01-16T10:05:10;97767.38;;;4.39;75.59
76337;BME280;65157;50.082;18.178;2023-01-16T10:08:57;97762.16;;;4.43;75.79
76337;BME280;65157;50.082;18.178;2023-01-16T10:13:39;97743.90;;;4.49;74.92
76337;BME280;65157;50.082;18.178;2023-01-16T10:16:12;97731.41;;;4.51;75.23
76337;BME280;65157;50.082;18.178;2023-01-16T10:21:41;97721.64;;;4.59;75.20
76337;BME280;65157;50.082;18.178;2023-01-16T10:26:57;97713.35;;;4.73;74.47
76337;BME280;65157;50.082;18.178;2023-01-16T10:29:36;97704.29;;;4.81;74.49
76337;BME280;65157;50.082;18.178;2023-01-16T10:35:12;97690.23;;;4.90;74.56
76337;BME280;65157;50.082;18.178;2023-01-16T10:37:40;97686.17;;;4.94;74.48
76337;BME280;65157;50.082;18.178;2023-01-16T10:40:16;97680.84;;;5.00;74.11
76337;BME280;65157;50.082;18.178;2023-01-16T10:42:49;97674.64;;;5.06;74.00
76337;BME280;65157;50.082;18.178;2023-01-16T10:45:36;97658.27;;;5.08;73.26
76337;BME280;65157;50.082;18.178;2023-01-16T10:48:23;97661.09;;;5.23;73.57
76337;BME280;65157;50.082;18.178;2023-01-16T10:51:11;97656.13;;;5.32;73.17
76337;BME280;65157;50.082;18.178;2023-01-16T10:53:38;97647.25;;;5.42;72.89
76337;BME280;65157;50.082;18.178;2023-01-16T10:56:05;97642.38;;;5.52;72.22
76337;BME280;65157;50.082;18.178;2023-01-16T10:58:34;97634.92;;;5.62;72.04
76337;BME280;65157;50.082;18.178;2023-01-16T11:01:06;97625.55;;;5.71;71.32
76337;BME280;65157;50.082;18.178;2023-01-16T11:03:46;97615.59;;;5.81;70.67
76337;BME280;65157;50.082;18.178;2023-01-16T11:06:24;97609.23;;;5.94;71.10
76337;BME280;65157;50.082;18.178;2023-01-16T11:09:16;97598.64;;;6.09;70.70
76337;BME280;65157;50.082;18.178;2023-01-16T11:11:43;97582.37;;;6.26;70.28
76337;BME280;65157;50.082;18.178;2023-01-16T11:14:47;97576.71;;;6.50;69.55
76337;BME280;65157;50.082;18.178;2023-01-16T11:17:34;97572.19;;;6.69;68.19
76337;BME280;65157;50.082;18.178;2023-01-16T11:20:31;97569.14;;;6.73;67.02
76337;BME280;65157;50.082;18.178;2023-01-16T11:25:35;97564.98;;;6.73;67.76
76337;BME280;65157;50.082;18.178;2023-01-16T11:28:05;97564.09;;;6.73;66.68
76337;BME280;65157;50.082;18.178;2023-01-16T11:30:37;97556.89;;;6.73;67.32
76337;BME280;65157;50.082;18.178;2023-01-16T11:33:16;97554.09;;;6.76;66.85
76337;BME280;65157;50.082;18.178;2023-01-16T11:35:54;97551.89;;;6.84;67.52
76337;BME280;65157;50.082;18.178;2023-01-16T11:38:23;97548.56;;;6.94;67.33
76337;BME280;65157;50.082;18.178;2023-01-16T11:40:52;97537.89;;;7.03;66.58
76337;BME280;65157;50.082;18.178;2023-01-16T11:43:23;97533.02;;;7.08;66.27
76337;BME280;65157;50.082;18.178;2023-01-16T11:48:54;97526.94;;;7.16;66.13
76337;BME280;65157;50.082;18.178;2023-01-16T11:51:26;97517.32;;;7.19;66.11
76337;BME280;65157;50.082;18.178;2023-01-16T11:53:55;97514.02;;;7.21;66.60
76337;BME280;65157;50.082;18.178;2023-01-16T11:57:02;97509.87;;;7.26;66.21
76337;BME280;65157;50.082;18.178;2023-01-16T12:05:21;97492.27;;;7.43;65.71
76337;BME280;65157;50.082;18.178;2023-01-16T12:10:44;97468.55;;;7.46;65.27
76337;BME280;65157;50.082;18.178;2023-01-16T12:13:13;97461.66;;;7.47;64.97
76337;BME280;65157;50.082;18.178;2023-01-16T12:16:10;97454.34;;;7.46;65.47
76337;BME280;65157;50.082;18.178;2023-01-16T12:24:06;97439.11;;;7.60;64.53
76337;BME280;65157;50.082;18.178;2023-01-16T12:44:01;97404.88;;;7.60;64.30
76337;BME280;65157;50.082;18.178;2023-01-16T12:58:02;97394.81;;;7.78;62.69
76337;BME280;65157;50.082;18.178;2023-01-16T13:00:35;97390.93;;;7.67;63.07
76337;BME280;65157;50.082;18.178;2023-01-16T13:03:17;97386.48;;;7.62;63.68
76337;BME280;65157;50.082;18.178;2023-01-16T13:05:48;97377.63;;;7.58;63.22
76337;BME280;65157;50.082;18.178;2023-01-16T13:08:20;97373.27;;;7.55;63.46
76337;BME280;65157;50.082;18.178;2023-01-16T13:10:50;97379.19;;;7.55;63.48
76337;BME280;65157;50.082;18.178;2023-01-16T13:13:42;97379.66;;;7.59;63.39
76337;BME280;65157;50.082;18.178;2023-01-16T13:16:20;97371.56;;;7.65;63.14
76337;BME280;65157;50.082;18.178;2023-01-16T13:18:56;97373.06;;;7.69;62.89
76337;BME280;65157;50.082;18.178;2023-01-16T13:21:32;97363.76;;;7.67;62.84
76337;BME280;65157;50.082;18.178;2023-01-16T13:24:14;97358.30;;;7.67;63.02
76337;BME280;65157;50.082;18.178;2023-01-16T13:26:44;97362.08;;;7.68;62.94
76337;BME280;65157;50.082;18.178;2023-01-16T13:29:25;97357.67;;;7.71;62.82
76337;BME280;65157;50.082;18.178;2023-01-16T13:31:58;97350.06;;;7.72;62.67
76337;BME280;65157;50.082;18.178;2023-01-16T13:34:35;97345.23;;;7.71;62.41
76337;BME280;65157;50.082;18.178;2023-01-16T13:37:28;97340.18;;;7.70;62.48
76337;BME280;65157;50.082;18.178;2023-01-16T13:43:06;97322.52;;;7.63;62.94
76337;BME280;65157;50.082;18.178;2023-01-16T13:45:53;97317.35;;;7.53;63.10
76337;BME280;65157;50.082;18.178;2023-01-16T13:48:26;97311.63;;;7.46;62.91
76337;BME280;65157;50.082;18.178;2023-01-16T13:50:58;97308.56;;;7.36;62.65
76337;BME280;65157;50.082;18.178;2023-01-16T13:53:28;97302.73;;;7.25;62.70
76337;BME280;65157;50.082;18.178;2023-01-16T13:56:13;97298.05;;;7.18;62.74
76337;BME280;65157;50.082;18.178;2023-01-16T13:58:42;97293.39;;;7.11;62.95
76337;BME280;65157;50.082;18.178;2023-01-16T14:06:52;97283.17;;;6.97;64.05
76337;BME280;65157;50.082;18.178;2023-01-16T14:10:14;97285.69;;;6.96;63.94
76337;BME280;65157;50.082;18.178;2023-01-16T14:13:02;97282.02;;;6.93;64.06
76337;BME280;65157;50.082;18.178;2023-01-16T14:21:24;97271.33;;;7.11;65.37
76337;BME280;65157;50.082;18.178;2023-01-16T14:23:57;97265.74;;;7.45;64.65
76337;BME280;65157;50.082;18.178;2023-01-16T14:29:34;97246.33;;;8.45;64.19
76337;BME280;65157;50.082;18.178;2023-01-16T14:34:40;97234.15;;;8.70;62.07
76337;BME280;65157;50.082;18.178;2023-01-16T14:37:59;97230.46;;;8.38;62.55
76337;BME280;65157;50.082;18.178;2023-01-16T14:40:20;97226.14;;;8.04;63.01
76337;BME280;65157;50.082;18.178;2023-01-16T14:42:54;97219.13;;;7.77;63.11
76337;BME280;65157;50.082;18.178;2023-01-16T14:45:42;97218.46;;;7.54;63.15
76337;BME280;65157;50.082;18.178;2023-01-16T14:48:46;97210.82;;;7.27;63.45
76337;BME280;65157;50.082;18.178;2023-01-16T14:51:34;97207.85;;;7.07;63.79
76337;BME280;65157;50.082;18.178;2023-01-16T14:54:34;97201.27;;;6.89;64.37
76337;BME280;65157;50.082;18.178;2023-01-16T14:57:24;97193.96;;;6.73;64.90
76337;BME280;65157;50.082;18.178;2023-01-16T15:00:00;97187.98;;;6.62;65.40
76337;BME280;65157;50.082;18.178;2023-01-16T15:02:37;97183.49;;;6.52;65.57
76337;BME280;65157;50.082;18.178;2023-01-16T15:07:42;97177.73;;;6.34;66.17
76337;BME280;65157;50.082;18.178;2023-01-16T15:10:29;97177.73;;;6.31;66.38
76337;BME280;65157;50.082;18.178;2023-01-16T15:16:17;97175.67;;;6.21;66.77
76337;BME280;65157;50.082;18.178;2023-01-16T15:19:16;97163.71;;;6.13;67.20
76337;BME280;65157;50.082;18.178;2023-01-16T15:22:04;97153.75;;;6.04;67.35
76337;BME280;65157;50.082;18.178;2023-01-16T15:24:41;97147.19;;;5.96;67.64
76337;BME280;65157;50.082;18.178;2023-01-16T15:27:15;97149.56;;;5.91;67.58
76337;BME280;65157;50.082;18.178;2023-01-16T15:30:12;97145.00;;;5.88;67.61